sensor_id;sensor_type;location;lat;lon;timestamp;temperature;humidity
18884;DHT22;9574;47.282;9.640;2022-08-03T00:01:38;22.20;99.90
18884;DHT22;9574;47.282;9.640;2022-08-03T00:04:07;22.20;99.90
18884;DHT22;9574;47.282;9.640;2022-08-03T00:06:34;22.10;99.90
18884;DHT22;9574;47.282;9.640;2022-08-03T00:09:01;22.00;99.90
18884;DHT22;9574;47.282;9.640;2022-08-03T00:11:28;21.90;99.90
18884;DHT22;9574;47.282;9.640;2022-08-03T00:13:55;21.90;99.90
18884;DHT22;9574;47.282;9.640;2022-08-03T00:16:23;21.80;99.90
18884;DHT22;9574;47.282;9.640;2022-08-03T00:18:50;21.80;99.90
18884;DHT22;9574;47.282;9.640;2022-08-03T00:21:18;21.90;99.90
18884;DHT22;9574;47.282;9.640;2022-08-03T00:23:45;21.90;99.90
18884;DHT22;9574;47.282;9.640;2022-08-03T00:26:11;21.80;99.90
18884;DHT22;9574;47.282;9.640;2022-08-03T00:28:38;21.90;99.90
18884;DHT22;9574;47.282;9.640;2022-08-03T00:31:06;21.90;99.90
18884;DHT22;9574;47.282;9.640;2022-08-03T00:33:34;21.80;99.90
18884;DHT22;9574;47.282;9.640;2022-08-03T00:36:01;22.00;99.90
18884;DHT22;9574;47.282;9.640;2022-08-03T00:38:28;22.30;99.90
18884;DHT22;9574;47.282;9.640;2022-08-03T00:40:55;22.70;99.90
18884;DHT22;9574;47.282;9.640;2022-08-03T00:43:24;22.90;99.90
18884;DHT22;9574;47.282;9.640;2022-08-03T00:45:51;22.90;99.90
18884;DHT22;9574;47.282;9.640;2022-08-03T00:48:19;22.70;99.90
18884;DHT22;9574;47.282;9.640;2022-08-03T00:50:47;22.30;99.90
18884;DHT22;9574;47.282;9.640;2022-08-03T00:53:15;22.10;99.90
18884;DHT22;9574;47.282;9.640;2022-08-03T00:55:43;22.00;99.90
18884;DHT22;9574;47.282;9.640;2022-08-03T00:58:10;22.00;99.90
18884;DHT22;9574;47.282;9.640;2022-08-03T01:00:39;22.00;99.90
18884;DHT22;9574;47.282;9.640;2022-08-03T01:03:07;21.90;99.90
18884;DHT22;9574;47.282;9.640;2022-08-03T01:05:39;21.80;99.90
18884;DHT22;9574;47.282;9.640;2022-08-03T01:08:16;21.70;99.90
18884;DHT22;9574;47.282;9.640;2022-08-03T01:10:53;21.80;99.90
18884;DHT22;9574;47.282;9.640;2022-08-03T01:13:26;21.70;99.90
18884;DHT22;9574;47.282;9.640;2022-08-03T01:15:59;21.60;99.90
18884;DHT22;9574;47.282;9.640;2022-08-03T01:18:31;21.50;99.90
18884;DHT22;9574;47.282;9.640;2022-08-03T01:21:06;21.50;99.90
18884;DHT22;9574;47.282;9.640;2022-08-03T01:23:53;21.50;99.90
18884;DHT22;9574;47.282;9.640;2022-08-03T01:32:37;21.40;99.90
18884;DHT22;9574;47.282;9.640;2022-08-03T01:35:08;21.40;99.90
18884;DHT22;9574;47.282;9.640;2022-08-03T01:37:39;21.40;99.90
18884;DHT22;9574;47.282;9.640;2022-08-03T01:40:08;21.50;99.90
18884;DHT22;9574;47.282;9.640;2022-08-03T01:42:39;21.60;99.90
18884;DHT22;9574;47.282;9.640;2022-08-03T01:45:08;21.60;99.90
18884;DHT22;9574;47.282;9.640;2022-08-03T01:47:38;21.50;99.90
18884;DHT22;9574;47.282;9.640;2022-08-03T01:50:07;21.30;99.90
18884;DHT22;9574;47.282;9.640;2022-08-03T01:52:37;21.20;99.90
18884;DHT22;9574;47.282;9.640;2022-08-03T01:55:07;21.10;99.90
18884;DHT22;9574;47.282;9.640;2022-08-03T01:57:37;21.10;99.90
18884;DHT22;9574;47.282;9.640;2022-08-03T02:00:06;21.10;99.90
18884;DHT22;9574;47.282;9.640;2022-08-03T02:02:38;21.00;99.90
18884;DHT22;9574;47.282;9.640;2022-08-03T02:05:07;21.00;99.90
18884;DHT22;9574;47.282;9.640;2022-08-03T02:07:36;21.10;99.90
18884;DHT22;9574;47.282;9.640;2022-08-03T02:10:06;21.10;99.90
18884;DHT22;9574;47.282;9.640;2022-08-03T02:12:36;21.20;99.90
18884;DHT22;9574;47.282;9.640;2022-08-03T02:15:05;21.10;99.90
18884;DHT22;9574;47.282;9.640;2022-08-03T02:17:33;21.10;99.90
18884;DHT22;9574;47.282;9.640;2022-08-03T02:20:02;21.10;99.90
18884;DHT22;9574;47.282;9.640;2022-08-03T02:22:30;21.00;99.90
18884;DHT22;9574;47.282;9.640;2022-08-03T02:24:58;21.00;99.90
18884;DHT22;9574;47.282;9.640;2022-08-03T02:27:26;21.00;99.90
18884;DHT22;9574;47.282;9.640;2022-08-03T02:30:00;20.90;99.90
18884;DHT22;9574;47.282;9.640;2022-08-03T02:32:30;20.90;99.90
18884;DHT22;9574;47.282;9.640;2022-08-03T02:34:58;21.00;99.90
18884;DHT22;9574;47.282;9.640;2022-08-03T02:37:31;21.00;99.90
18884;DHT22;9574;47.282;9.640;2022-08-03T02:40:01;21.10;99.90
18884;DHT22;9574;47.282;9.640;2022-08-03T02:42:31;21.00;99.90
18884;DHT22;9574;47.282;9.640;2022-08-03T02:45:01;21.00;99.90
18884;DHT22;9574;47.282;9.640;2022-08-03T02:47:28;21.00;99.90
18884;DHT22;9574;47.282;9.640;2022-08-03T02:49:57;20.90;99.90
18884;DHT22;9574;47.282;9.640;2022-08-03T02:52:28;20.80;99.90
18884;DHT22;9574;47.282;9.640;2022-08-03T02:54:58;20.80;99.90
18884;DHT22;9574;47.282;9.640;2022-08-03T02:57:27;20.90;99.90
18884;DHT22;9574;47.282;9.640;2022-08-03T02:59:57;20.80;99.90
18884;DHT22;9574;47.282;9.640;2022-08-03T03:02:27;20.80;99.90
18884;DHT22;9574;47.282;9.640;2022-08-03T03:04:54;20.60;99.90
18884;DHT22;9574;47.282;9.640;2022-08-03T03:07:22;20.50;99.90
18884;DHT22;9574;47.282;9.640;2022-08-03T03:09:50;20.40;99.90
18884;DHT22;9574;47.282;9.640;2022-08-03T03:12:18;20.40;99.90
18884;DHT22;9574;47.282;9.640;2022-08-03T03:14:45;20.50;99.90
18884;DHT22;9574;47.282;9.640;2022-08-03T03:17:14;20.40;99.90
18884;DHT22;9574;47.282;9.640;2022-08-03T03:19:43;20.50;99.90
18884;DHT22;9574;47.282;9.640;2022-08-03T03:22:12;20.60;99.90
18884;DHT22;9574;47.282;9.640;2022-08-03T03:24:40;20.60;99.90
18884;DHT22;9574;47.282;9.640;2022-08-03T03:27:09;20.50;99.90
18884;DHT22;9574;47.282;9.640;2022-08-03T03:29:37;20.50;99.90
18884;DHT22;9574;47.282;9.640;2022-08-03T03:32:04;20.50;99.90
18884;DHT22;9574;47.282;9.640;2022-08-03T03:34:32;20.50;99.90
18884;DHT22;9574;47.282;9.640;2022-08-03T03:36:59;20.50;99.90
18884;DHT22;9574;47.282;9.640;2022-08-03T03:39:27;20.60;99.90
18884;DHT22;9574;47.282;9.640;2022-08-03T03:41:54;20.60;99.90
18884;DHT22;9574;47.282;9.640;2022-08-03T03:44:25;20.50;99.90
18884;DHT22;9574;47.282;9.640;2022-08-03T03:46:53;20.50;99.90
18884;DHT22;9574;47.282;9.640;2022-08-03T03:49:20;20.40;99.90
18884;DHT22;9574;47.282;9.640;2022-08-03T03:51:47;20.40;99.90
18884;DHT22;9574;47.282;9.640;2022-08-03T03:54:14;20.50;99.90
18884;DHT22;9574;47.282;9.640;2022-08-03T03:56:41;20.50;99.90
18884;DHT22;9574;47.282;9.640;2022-08-03T03:59:08;20.50;99.90
18884;DHT22;9574;47.282;9.640;2022-08-03T04:01:37;20.30;99.90
18884;DHT22;9574;47.282;9.640;2022-08-03T04:04:04;20.50;99.90
18884;DHT22;9574;47.282;9.640;2022-08-03T04:06:45;20.80;99.90
18884;DHT22;9574;47.282;9.640;2022-08-03T04:09:30;20.80;99.90
18884;DHT22;9574;47.282;9.640;2022-08-03T04:12:16;20.60;99.90
18884;DHT22;9574;47.282;9.640;2022-08-03T04:14:45;20.40;99.90
18884;DHT22;9574;47.282;9.640;2022-08-03T04:17:16;20.40;99.90
18884;DHT22;9574;47.282;9.640;2022-08-03T04:19:48;20.20;99.90
18884;DHT22;9574;47.282;9.640;2022-08-03T04:22:24;20.20;99.90
18884;DHT22;9574;47.282;9.640;2022-08-03T04:24:56;20.30;99.90
18884;DHT22;9574;47.282;9.640;2022-08-03T04:27:29;20.30;99.90
18884;DHT22;9574;47.282;9.640;2022-08-03T04:29:58;20.20;99.90
18884;DHT22;9574;47.282;9.640;2022-08-03T04:32:29;20.20;99.90
18884;DHT22;9574;47.282;9.640;2022-08-03T04:34:57;20.20;99.90
18884;DHT22;9574;47.282;9.640;2022-08-03T04:37:30;20.30;99.90
18884;DHT22;9574;47.282;9.640;2022-08-03T04:40:01;20.20;99.90
18884;DHT22;9574;47.282;9.640;2022-08-03T04:42:30;20.10;99.90
18884;DHT22;9574;47.282;9.640;2022-08-03T04:44:59;20.00;99.90
18884;DHT22;9574;47.282;9.640;2022-08-03T04:47:29;19.90;99.90
18884;DHT22;9574;47.282;9.640;2022-08-03T04:49:56;19.90;99.90
18884;DHT22;9574;47.282;9.640;2022-08-03T04:52:23;19.80;99.90
18884;DHT22;9574;47.282;9.640;2022-08-03T04:54:50;19.80;99.90
18884;DHT22;9574;47.282;9.640;2022-08-03T04:57:18;20.00;99.90
18884;DHT22;9574;47.282;9.640;2022-08-03T04:59:45;19.90;99.90
18884;DHT22;9574;47.282;9.640;2022-08-03T05:02:13;19.90;99.90
18884;DHT22;9574;47.282;9.640;2022-08-03T05:04:42;19.90;99.90
18884;DHT22;9574;47.282;9.640;2022-08-03T05:07:11;20.00;99.90
18884;DHT22;9574;47.282;9.640;2022-08-03T05:09:38;20.10;99.90
18884;DHT22;9574;47.282;9.640;2022-08-03T05:12:05;20.10;99.90
18884;DHT22;9574;47.282;9.640;2022-08-03T05:14:32;20.10;99.90
18884;DHT22;9574;47.282;9.640;2022-08-03T05:16:59;20.20;99.90
18884;DHT22;9574;47.282;9.640;2022-08-03T05:19:26;20.20;99.90
18884;DHT22;9574;47.282;9.640;2022-08-03T05:21:54;20.30;99.90
18884;DHT22;9574;47.282;9.640;2022-08-03T05:24:21;20.30;99.90
18884;DHT22;9574;47.282;9.640;2022-08-03T05:26:48;20.40;99.90
18884;DHT22;9574;47.282;9.640;2022-08-03T05:29:15;20.40;99.90
18884;DHT22;9574;47.282;9.640;2022-08-03T05:31:42;20.50;99.90
18884;DHT22;9574;47.282;9.640;2022-08-03T05:34:09;20.80;99.90
18884;DHT22;9574;47.282;9.640;2022-08-03T05:36:36;20.90;99.90
18884;DHT22;9574;47.282;9.640;2022-08-03T05:39:05;20.90;99.90
18884;DHT22;9574;47.282;9.640;2022-08-03T05:41:32;20.90;99.90
18884;DHT22;9574;47.282;9.640;2022-08-03T05:43:59;20.90;99.90
18884;DHT22;9574;47.282;9.640;2022-08-03T05:46:27;21.00;99.90
18884;DHT22;9574;47.282;9.640;2022-08-03T05:48:54;21.10;99.90
18884;DHT22;9574;47.282;9.640;2022-08-03T05:51:21;21.10;99.90
18884;DHT22;9574;47.282;9.640;2022-08-03T05:53:48;21.00;99.90
18884;DHT22;9574;47.282;9.640;2022-08-03T05:56:16;21.10;99.90
18884;DHT22;9574;47.282;9.640;2022-08-03T05:58:45;21.10;99.90
18884;DHT22;9574;47.282;9.640;2022-08-03T06:01:12;21.10;99.90
18884;DHT22;9574;47.282;9.640;2022-08-03T06:03:39;21.10;99.90
18884;DHT22;9574;47.282;9.640;2022-08-03T06:06:06;21.20;99.90
18884;DHT22;9574;47.282;9.640;2022-08-03T06:08:33;21.40;99.90
18884;DHT22;9574;47.282;9.640;2022-08-03T06:11:00;21.50;99.90
18884;DHT22;9574;47.282;9.640;2022-08-03T06:13:28;21.50;99.90
18884;DHT22;9574;47.282;9.640;2022-08-03T06:15:56;21.60;99.90
18884;DHT22;9574;47.282;9.640;2022-08-03T06:18:22;21.70;99.90
18884;DHT22;9574;47.282;9.640;2022-08-03T06:20:49;21.70;99.90
18884;DHT22;9574;47.282;9.640;2022-08-03T06:23:17;21.80;99.90
18884;DHT22;9574;47.282;9.640;2022-08-03T06:25:44;21.90;99.90
18884;DHT22;9574;47.282;9.640;2022-08-03T06:28:12;22.20;99.90
18884;DHT22;9574;47.282;9.640;2022-08-03T06:30:41;22.30;99.90
18884;DHT22;9574;47.282;9.640;2022-08-03T06:33:07;22.30;99.90
18884;DHT22;9574;47.282;9.640;2022-08-03T06:35:34;22.40;99.90
18884;DHT22;9574;47.282;9.640;2022-08-03T06:38:01;22.60;99.90
18884;DHT22;9574;47.282;9.640;2022-08-03T06:40:29;23.00;99.90
18884;DHT22;9574;47.282;9.640;2022-08-03T06:42:56;23.10;99.90
18884;DHT22;9574;47.282;9.640;2022-08-03T06:45:23;23.00;99.90
18884;DHT22;9574;47.282;9.640;2022-08-03T06:48:01;23.10;99.90
18884;DHT22;9574;47.282;9.640;2022-08-03T06:50:29;23.20;99.90
18884;DHT22;9574;47.282;9.640;2022-08-03T06:52:56;23.20;99.90
18884;DHT22;9574;47.282;9.640;2022-08-03T06:55:23;23.20;99.90
18884;DHT22;9574;47.282;9.640;2022-08-03T06:57:50;23.20;99.90
18884;DHT22;9574;47.282;9.640;2022-08-03T07:00:17;23.20;99.90
18884;DHT22;9574;47.282;9.640;2022-08-03T07:02:44;23.40;99.90
18884;DHT22;9574;47.282;9.640;2022-08-03T07:05:13;23.60;99.90
18884;DHT22;9574;47.282;9.640;2022-08-03T07:07:41;23.70;99.90
18884;DHT22;9574;47.282;9.640;2022-08-03T07:10:08;23.80;99.90
18884;DHT22;9574;47.282;9.640;2022-08-03T07:12:37;23.90;99.90
18884;DHT22;9574;47.282;9.640;2022-08-03T07:15:05;24.00;99.90
18884;DHT22;9574;47.282;9.640;2022-08-03T07:17:34;24.00;99.90
18884;DHT22;9574;47.282;9.640;2022-08-03T07:20:03;24.20;99.90
18884;DHT22;9574;47.282;9.640;2022-08-03T07:22:32;24.30;99.90
18884;DHT22;9574;47.282;9.640;2022-08-03T07:25:00;24.30;99.90
18884;DHT22;9574;47.282;9.640;2022-08-03T07:27:27;24.40;99.90
18884;DHT22;9574;47.282;9.640;2022-08-03T07:29:55;24.50;99.90
18884;DHT22;9574;47.282;9.640;2022-08-03T07:32:23;24.60;99.90
18884;DHT22;9574;47.282;9.640;2022-08-03T07:34:50;24.70;99.90
18884;DHT22;9574;47.282;9.640;2022-08-03T07:37:17;25.00;99.90
18884;DHT22;9574;47.282;9.640;2022-08-03T07:39:45;25.20;99.90
18884;DHT22;9574;47.282;9.640;2022-08-03T07:42:13;25.30;99.90
18884;DHT22;9574;47.282;9.640;2022-08-03T07:44:40;25.50;99.90
18884;DHT22;9574;47.282;9.640;2022-08-03T07:47:07;25.40;99.90
18884;DHT22;9574;47.282;9.640;2022-08-03T07:49:38;25.50;99.90
18884;DHT22;9574;47.282;9.640;2022-08-03T07:52:05;25.70;99.90
18884;DHT22;9574;47.282;9.640;2022-08-03T07:54:51;25.80;99.90
18884;DHT22;9574;47.282;9.640;2022-08-03T07:57:18;25.90;99.90
18884;DHT22;9574;47.282;9.640;2022-08-03T07:59:45;26.00;99.90
18884;DHT22;9574;47.282;9.640;2022-08-03T08:02:12;26.00;99.90
18884;DHT22;9574;47.282;9.640;2022-08-03T08:04:39;26.00;99.90
18884;DHT22;9574;47.282;9.640;2022-08-03T08:07:06;26.10;99.90
18884;DHT22;9574;47.282;9.640;2022-08-03T08:09:33;26.10;99.90
18884;DHT22;9574;47.282;9.640;2022-08-03T08:12:02;26.30;99.90
18884;DHT22;9574;47.282;9.640;2022-08-03T08:14:30;26.20;99.90
18884;DHT22;9574;47.282;9.640;2022-08-03T08:16:57;26.10;99.90
18884;DHT22;9574;47.282;9.640;2022-08-03T08:19:24;26.10;99.90
18884;DHT22;9574;47.282;9.640;2022-08-03T08:21:51;26.20;99.90
18884;DHT22;9574;47.282;9.640;2022-08-03T08:24:18;26.30;99.90
18884;DHT22;9574;47.282;9.640;2022-08-03T08:26:45;26.40;99.90
18884;DHT22;9574;47.282;9.640;2022-08-03T08:29:13;26.60;99.90
18884;DHT22;9574;47.282;9.640;2022-08-03T08:31:40;26.90;99.90
18884;DHT22;9574;47.282;9.640;2022-08-03T08:34:07;26.90;99.90
18884;DHT22;9574;47.282;9.640;2022-08-03T08:36:35;27.20;99.90
18884;DHT22;9574;47.282;9.640;2022-08-03T08:39:02;27.40;99.90
18884;DHT22;9574;47.282;9.640;2022-08-03T08:41:29;27.60;99.90
18884;DHT22;9574;47.282;9.640;2022-08-03T08:43:58;27.80;99.90
18884;DHT22;9574;47.282;9.640;2022-08-03T08:46:29;27.80;99.90
18884;DHT22;9574;47.282;9.640;2022-08-03T08:48:58;27.70;99.90
18884;DHT22;9574;47.282;9.640;2022-08-03T08:51:28;27.90;99.90
18884;DHT22;9574;47.282;9.640;2022-08-03T08:53:57;28.10;99.90
18884;DHT22;9574;47.282;9.640;2022-08-03T08:56:30;28.30;99.90
18884;DHT22;9574;47.282;9.640;2022-08-03T08:58:58;28.40;99.60
18884;DHT22;9574;47.282;9.640;2022-08-03T09:01:27;28.50;99.80
18884;DHT22;9574;47.282;9.640;2022-08-03T09:03:54;28.30;99.90
18884;DHT22;9574;47.282;9.640;2022-08-03T09:06:22;28.30;99.90
18884;DHT22;9574;47.282;9.640;2022-08-03T09:08:49;28.50;99.90
18884;DHT22;9574;47.282;9.640;2022-08-03T09:11:20;28.60;99.90
18884;DHT22;9574;47.282;9.640;2022-08-03T09:13:48;28.80;99.90
18884;DHT22;9574;47.282;9.640;2022-08-03T09:16:17;28.90;99.90
18884;DHT22;9574;47.282;9.640;2022-08-03T09:18:48;28.90;99.90
18884;DHT22;9574;47.282;9.640;2022-08-03T09:21:18;29.10;99.90
18884;DHT22;9574;47.282;9.640;2022-08-03T09:23:47;29.10;99.90
18884;DHT22;9574;47.282;9.640;2022-08-03T09:26:22;29.30;99.90
18884;DHT22;9574;47.282;9.640;2022-08-03T09:28:58;29.40;99.90
18884;DHT22;9574;47.282;9.640;2022-08-03T09:31:32;29.60;99.90
18884;DHT22;9574;47.282;9.640;2022-08-03T09:34:02;29.80;99.90
18884;DHT22;9574;47.282;9.640;2022-08-03T09:36:33;30.00;99.90
18884;DHT22;9574;47.282;9.640;2022-08-03T09:39:01;30.20;99.90
18884;DHT22;9574;47.282;9.640;2022-08-03T09:41:30;30.20;99.40
18884;DHT22;9574;47.282;9.640;2022-08-03T09:43:58;29.90;99.90
18884;DHT22;9574;47.282;9.640;2022-08-03T09:46:25;29.80;99.90
18884;DHT22;9574;47.282;9.640;2022-08-03T09:49:09;29.70;98.60
18884;DHT22;9574;47.282;9.640;2022-08-03T09:51:37;29.70;98.10
18884;DHT22;9574;47.282;9.640;2022-08-03T09:54:05;29.60;99.90
18884;DHT22;9574;47.282;9.640;2022-08-03T09:56:42;29.70;99.80
18884;DHT22;9574;47.282;9.640;2022-08-03T09:59:12;29.80;99.90
18884;DHT22;9574;47.282;9.640;2022-08-03T10:01:39;29.90;99.80
18884;DHT22;9574;47.282;9.640;2022-08-03T10:04:14;29.90;99.60
18884;DHT22;9574;47.282;9.640;2022-08-03T10:06:43;30.00;99.00
18884;DHT22;9574;47.282;9.640;2022-08-03T10:09:11;30.10;99.30
18884;DHT22;9574;47.282;9.640;2022-08-03T10:11:43;30.20;99.90
18884;DHT22;9574;47.282;9.640;2022-08-03T10:14:12;30.10;99.90
18884;DHT22;9574;47.282;9.640;2022-08-03T10:16:44;30.10;98.80
18884;DHT22;9574;47.282;9.640;2022-08-03T10:19:13;30.20;99.90
18884;DHT22;9574;47.282;9.640;2022-08-03T10:21:45;30.30;99.30
18884;DHT22;9574;47.282;9.640;2022-08-03T10:24:18;30.30;99.90
18884;DHT22;9574;47.282;9.640;2022-08-03T10:26:47;30.40;99.90
18884;DHT22;9574;47.282;9.640;2022-08-03T10:29:20;30.40;99.90
18884;DHT22;9574;47.282;9.640;2022-08-03T10:31:52;30.40;99.90
18884;DHT22;9574;47.282;9.640;2022-08-03T10:34:23;30.40;99.90
18884;DHT22;9574;47.282;9.640;2022-08-03T10:36:52;30.40;99.90
18884;DHT22;9574;47.282;9.640;2022-08-03T10:39:23;30.50;99.90
18884;DHT22;9574;47.282;9.640;2022-08-03T10:41:53;30.60;99.90
18884;DHT22;9574;47.282;9.640;2022-08-03T10:44:25;30.70;99.90
18884;DHT22;9574;47.282;9.640;2022-08-03T10:46:55;30.80;99.90
18884;DHT22;9574;47.282;9.640;2022-08-03T10:49:24;31.00;99.90
18884;DHT22;9574;47.282;9.640;2022-08-03T10:51:52;31.10;99.90
18884;DHT22;9574;47.282;9.640;2022-08-03T10:54:38;31.10;99.90
18884;DHT22;9574;47.282;9.640;2022-08-03T10:57:41;31.20;99.90
18884;DHT22;9574;47.282;9.640;2022-08-03T11:00:09;31.20;99.90
18884;DHT22;9574;47.282;9.640;2022-08-03T11:03:04;31.20;99.90
18884;DHT22;9574;47.282;9.640;2022-08-03T11:05:34;31.30;99.90
18884;DHT22;9574;47.282;9.640;2022-08-03T11:08:31;31.40;99.90
18884;DHT22;9574;47.282;9.640;2022-08-03T11:11:02;31.50;99.40
18884;DHT22;9574;47.282;9.640;2022-08-03T11:13:30;31.50;99.90
18884;DHT22;9574;47.282;9.640;2022-08-03T11:16:01;31.60;99.90
18884;DHT22;9574;47.282;9.640;2022-08-03T11:18:29;31.60;99.70
18884;DHT22;9574;47.282;9.640;2022-08-03T11:20:59;31.70;99.60
18884;DHT22;9574;47.282;9.640;2022-08-03T11:23:43;31.70;99.90
18884;DHT22;9574;47.282;9.640;2022-08-03T11:26:11;31.80;99.90
18884;DHT22;9574;47.282;9.640;2022-08-03T11:28:39;31.90;99.90
18884;DHT22;9574;47.282;9.640;2022-08-03T11:34:22;31.90;99.90
18884;DHT22;9574;47.282;9.640;2022-08-03T11:37:22;32.00;99.90
18884;DHT22;9574;47.282;9.640;2022-08-03T11:39:52;32.20;99.60
18884;DHT22;9574;47.282;9.640;2022-08-03T11:42:40;32.20;98.70
18884;DHT22;9574;47.282;9.640;2022-08-03T11:45:09;32.30;99.90
18884;DHT22;9574;47.282;9.640;2022-08-03T11:47:38;32.40;99.50
18884;DHT22;9574;47.282;9.640;2022-08-03T11:50:06;32.40;97.70
18884;DHT22;9574;47.282;9.640;2022-08-03T11:52:37;32.50;99.30
18884;DHT22;9574;47.282;9.640;2022-08-03T11:55:09;32.50;98.00
18884;DHT22;9574;47.282;9.640;2022-08-03T11:57:37;32.50;97.70
18884;DHT22;9574;47.282;9.640;2022-08-03T12:00:21;32.50;98.50
18884;DHT22;9574;47.282;9.640;2022-08-03T12:03:01;32.60;98.50
18884;DHT22;9574;47.282;9.640;2022-08-03T12:05:40;32.60;98.60
18884;DHT22;9574;47.282;9.640;2022-08-03T12:08:09;32.70;98.10
18884;DHT22;9574;47.282;9.640;2022-08-03T12:10:38;32.70;97.90
18884;DHT22;9574;47.282;9.640;2022-08-03T12:13:06;32.70;98.30
18884;DHT22;9574;47.282;9.640;2022-08-03T12:15:34;32.80;97.70
18884;DHT22;9574;47.282;9.640;2022-08-03T12:18:11;32.80;99.90
18884;DHT22;9574;47.282;9.640;2022-08-03T12:20:38;32.80;99.20
18884;DHT22;9574;47.282;9.640;2022-08-03T12:23:07;32.90;98.50
18884;DHT22;9574;47.282;9.640;2022-08-03T12:25:36;32.90;98.90
18884;DHT22;9574;47.282;9.640;2022-08-03T12:28:09;32.90;99.90
18884;DHT22;9574;47.282;9.640;2022-08-03T12:30:37;33.00;99.60
18884;DHT22;9574;47.282;9.640;2022-08-03T12:33:15;33.20;98.50
18884;DHT22;9574;47.282;9.640;2022-08-03T12:35:44;33.30;99.00
18884;DHT22;9574;47.282;9.640;2022-08-03T12:38:17;33.30;98.10
18884;DHT22;9574;47.282;9.640;2022-08-03T12:40:44;33.50;98.10
18884;DHT22;9574;47.282;9.640;2022-08-03T12:43:12;33.50;98.20
18884;DHT22;9574;47.282;9.640;2022-08-03T12:45:40;33.50;97.90
18884;DHT22;9574;47.282;9.640;2022-08-03T12:48:09;33.60;98.10
18884;DHT22;9574;47.282;9.640;2022-08-03T12:50:37;33.60;96.20
18884;DHT22;9574;47.282;9.640;2022-08-03T12:53:07;33.60;96.20
18884;DHT22;9574;47.282;9.640;2022-08-03T12:55:37;33.60;97.30
18884;DHT22;9574;47.282;9.640;2022-08-03T12:58:05;33.60;95.10
18884;DHT22;9574;47.282;9.640;2022-08-03T13:00:32;33.60;96.00
18884;DHT22;9574;47.282;9.640;2022-08-03T13:03:01;33.60;94.70
18884;DHT22;9574;47.282;9.640;2022-08-03T13:05:29;33.70;96.20
18884;DHT22;9574;47.282;9.640;2022-08-03T13:07:56;33.70;96.40
18884;DHT22;9574;47.282;9.640;2022-08-03T13:10:27;33.80;95.10
18884;DHT22;9574;47.282;9.640;2022-08-03T13:12:56;33.80;95.30
18884;DHT22;9574;47.282;9.640;2022-08-03T13:15:25;33.70;96.10
18884;DHT22;9574;47.282;9.640;2022-08-03T13:17:54;33.80;96.00
18884;DHT22;9574;47.282;9.640;2022-08-03T13:20:21;33.90;95.90
18884;DHT22;9574;47.282;9.640;2022-08-03T13:22:48;33.90;95.20
18884;DHT22;9574;47.282;9.640;2022-08-03T13:25:16;33.90;95.10
18884;DHT22;9574;47.282;9.640;2022-08-03T13:27:43;33.90;94.80
18884;DHT22;9574;47.282;9.640;2022-08-03T13:30:11;33.90;96.00
18884;DHT22;9574;47.282;9.640;2022-08-03T13:32:39;33.90;95.40
18884;DHT22;9574;47.282;9.640;2022-08-03T13:35:07;34.00;96.00
18884;DHT22;9574;47.282;9.640;2022-08-03T13:37:34;34.10;95.40
18884;DHT22;9574;47.282;9.640;2022-08-03T13:40:03;34.20;96.10
18884;DHT22;9574;47.282;9.640;2022-08-03T13:42:31;34.20;94.80
18884;DHT22;9574;47.282;9.640;2022-08-03T13:45:00;34.20;95.80
18884;DHT22;9574;47.282;9.640;2022-08-03T13:47:28;34.20;95.70
18884;DHT22;9574;47.282;9.640;2022-08-03T13:49:55;34.20;95.60
18884;DHT22;9574;47.282;9.640;2022-08-03T13:52:22;34.20;95.50
18884;DHT22;9574;47.282;9.640;2022-08-03T13:54:49;34.20;95.30
18884;DHT22;9574;47.282;9.640;2022-08-03T13:57:16;34.30;94.60
18884;DHT22;9574;47.282;9.640;2022-08-03T13:59:43;34.30;94.90
18884;DHT22;9574;47.282;9.640;2022-08-03T14:02:10;34.30;94.90
18884;DHT22;9574;47.282;9.640;2022-08-03T14:04:38;34.30;94.80
18884;DHT22;9574;47.282;9.640;2022-08-03T14:07:05;34.40;94.20
18884;DHT22;9574;47.282;9.640;2022-08-03T14:09:32;34.40;94.10
18884;DHT22;9574;47.282;9.640;2022-08-03T14:11:59;34.40;94.40
18884;DHT22;9574;47.282;9.640;2022-08-03T14:14:26;34.40;94.50
18884;DHT22;9574;47.282;9.640;2022-08-03T14:16:53;34.30;93.40
18884;DHT22;9574;47.282;9.640;2022-08-03T14:19:20;34.20;94.60
18884;DHT22;9574;47.282;9.640;2022-08-03T14:21:49;34.30;94.70
18884;DHT22;9574;47.282;9.640;2022-08-03T14:24:16;34.40;94.60
18884;DHT22;9574;47.282;9.640;2022-08-03T14:26:42;34.40;95.50
18884;DHT22;9574;47.282;9.640;2022-08-03T14:29:10;34.40;94.60
18884;DHT22;9574;47.282;9.640;2022-08-03T14:31:37;34.40;94.90
18884;DHT22;9574;47.282;9.640;2022-08-03T14:34:04;34.40;95.10
18884;DHT22;9574;47.282;9.640;2022-08-03T14:36:31;34.50;93.50
18884;DHT22;9574;47.282;9.640;2022-08-03T14:38:59;34.40;94.20
18884;DHT22;9574;47.282;9.640;2022-08-03T14:41:27;34.40;94.20
18884;DHT22;9574;47.282;9.640;2022-08-03T14:43:54;34.40;94.50
18884;DHT22;9574;47.282;9.640;2022-08-03T14:46:22;34.30;95.10
18884;DHT22;9574;47.282;9.640;2022-08-03T14:48:49;34.40;93.70
18884;DHT22;9574;47.282;9.640;2022-08-03T14:51:16;34.40;94.50
18884;DHT22;9574;47.282;9.640;2022-08-03T14:53:43;34.40;93.80
18884;DHT22;9574;47.282;9.640;2022-08-03T14:56:12;34.40;94.60
18884;DHT22;9574;47.282;9.640;2022-08-03T14:58:39;34.40;93.90
18884;DHT22;9574;47.282;9.640;2022-08-03T15:01:06;34.40;94.20
18884;DHT22;9574;47.282;9.640;2022-08-03T15:03:33;34.40;93.10
18884;DHT22;9574;47.282;9.640;2022-08-03T15:06:00;34.30;94.00
18884;DHT22;9574;47.282;9.640;2022-08-03T15:08:27;34.40;94.20
18884;DHT22;9574;47.282;9.640;2022-08-03T15:10:54;34.40;93.60
18884;DHT22;9574;47.282;9.640;2022-08-03T15:13:22;34.30;93.70
18884;DHT22;9574;47.282;9.640;2022-08-03T15:15:50;34.10;93.70
18884;DHT22;9574;47.282;9.640;2022-08-03T15:18:17;34.20;93.70
18884;DHT22;9574;47.282;9.640;2022-08-03T15:20:44;34.20;93.10
18884;DHT22;9574;47.282;9.640;2022-08-03T15:23:14;34.10;92.50
18884;DHT22;9574;47.282;9.640;2022-08-03T15:25:41;34.00;92.90
18884;DHT22;9574;47.282;9.640;2022-08-03T15:28:08;33.90;93.00
18884;DHT22;9574;47.282;9.640;2022-08-03T15:30:36;33.80;93.00
18884;DHT22;9574;47.282;9.640;2022-08-03T15:33:04;33.80;93.30
18884;DHT22;9574;47.282;9.640;2022-08-03T15:35:31;33.70;93.50
18884;DHT22;9574;47.282;9.640;2022-08-03T15:37:58;33.70;93.00
18884;DHT22;9574;47.282;9.640;2022-08-03T15:40:24;33.70;93.90
18884;DHT22;9574;47.282;9.640;2022-08-03T15:42:51;33.60;94.00
18884;DHT22;9574;47.282;9.640;2022-08-03T15:45:19;33.70;93.10
18884;DHT22;9574;47.282;9.640;2022-08-03T15:47:47;33.70;93.20
18884;DHT22;9574;47.282;9.640;2022-08-03T15:50:14;33.70;93.20
18884;DHT22;9574;47.282;9.640;2022-08-03T15:52:41;33.70;93.70
18884;DHT22;9574;47.282;9.640;2022-08-03T15:55:09;33.70;93.90
18884;DHT22;9574;47.282;9.640;2022-08-03T15:57:36;33.70;93.70
18884;DHT22;9574;47.282;9.640;2022-08-03T16:00:04;33.70;93.60
18884;DHT22;9574;47.282;9.640;2022-08-03T16:02:32;33.70;93.30
18884;DHT22;9574;47.282;9.640;2022-08-03T16:05:00;33.70;93.40
18884;DHT22;9574;47.282;9.640;2022-08-03T16:07:28;33.60;93.20